createdAt,value
2023-02-11T00:02:24.286Z,11.47
2023-02-11T00:05:26.234Z,12.37
2023-02-11T00:08:28.675Z,11.93
2023-02-11T00:11:30.729Z,11.23
2023-02-11T00:14:32.695Z,10.93
2023-02-11T00:17:34.657Z,11.90
2023-02-11T00:20:39.226Z,11.70
2023-02-11T00:23:41.796Z,13.57
2023-02-11T00:26:43.783Z,11.13
2023-02-11T00:29:45.836Z,11.63
2023-02-11T00:32:47.774Z,11.20
2023-02-11T00:35:50.151Z,12.00
2023-02-11T00:38:55.268Z,12.60
2023-02-11T00:41:58.120Z,12.47
2023-02-11T00:45:00.085Z,12.80
2023-02-11T00:48:02.080Z,11.83
2023-02-11T00:51:04.483Z,13.33
2023-02-11T00:54:06.549Z,12.80
2023-02-11T00:57:08.484Z,12.10
2023-02-11T01:00:14.059Z,12.93
2023-02-11T01:03:16.175Z,13.60
2023-02-11T01:06:18.990Z,13.00
2023-02-11T01:09:21.345Z,14.10
2023-02-11T01:12:23.580Z,13.93
2023-02-11T01:15:26.049Z,13.50
2023-02-11T01:18:28.206Z,13.73
2023-02-11T01:21:30.248Z,14.10
2023-02-11T01:24:32.359Z,12.80
2023-02-11T01:27:35.054Z,12.07
2023-02-11T01:30:37.048Z,12.27
2023-02-11T01:33:39.173Z,12.97
2023-02-11T01:36:42.073Z,14.17
2023-02-11T01:39:44.129Z,13.20
2023-02-11T01:42:49.433Z,14.10
2023-02-11T01:45:56.022Z,13.63
2023-02-11T01:49:05.412Z,14.67
2023-02-11T01:52:13.029Z,13.17
2023-02-11T01:55:34.239Z,13.70
2023-02-11T01:58:41.726Z,12.73
2023-02-11T02:01:49.289Z,13.87
2023-02-11T02:05:02.757Z,13.73
2023-02-11T02:08:44.458Z,14.10
2023-02-11T02:11:46.391Z,14.63
2023-02-11T02:14:48.973Z,13.83
2023-02-11T02:18:24.730Z,14.03
2023-02-11T02:22:04.248Z,14.50
2023-02-11T02:25:12.935Z,14.43
2023-02-11T02:28:49.926Z,14.47
2023-02-11T02:32:10.466Z,14.60
2023-02-11T02:35:24.647Z,14.33
2023-02-11T02:38:41.044Z,15.13
2023-02-11T02:41:44.297Z,14.47
2023-02-11T02:44:53.555Z,14.83
2023-02-11T02:47:56.021Z,14.37
2023-02-11T02:51:06.650Z,14.77
2023-02-11T02:54:39.145Z,16.67
2023-02-11T02:58:05.559Z,16.87
2023-02-11T03:01:22.234Z,17.83
2023-02-11T03:04:40.299Z,15.27
2023-02-11T03:07:52.407Z,17.13
2023-02-11T03:10:56.943Z,20.07
2023-02-11T03:14:04.125Z,18.43
2023-02-11T03:17:08.772Z,17.53
2023-02-11T03:20:14.800Z,16.63
2023-02-11T03:23:28.480Z,17.07
2023-02-11T03:27:07.043Z,18.90
2023-02-11T03:30:22.865Z,16.53
2023-02-11T03:33:29.407Z,15.53
2023-02-11T03:36:51.823Z,17.07
2023-02-11T03:39:59.667Z,18.63
2023-02-11T03:43:09.161Z,16.47
2023-02-11T03:46:15.339Z,18.90
2023-02-11T03:49:21.655Z,18.00
2023-02-11T03:52:26.649Z,18.23
2023-02-11T03:55:30.256Z,17.50
2023-02-11T03:58:32.189Z,17.20
2023-02-11T04:01:34.436Z,19.73
2023-02-11T04:04:36.429Z,17.80
2023-02-11T04:07:38.372Z,18.97
2023-02-11T04:10:40.308Z,21.03
2023-02-11T04:13:42.268Z,19.03
2023-02-11T04:16:44.366Z,17.97
2023-02-11T04:19:46.377Z,20.53
2023-02-11T04:22:48.409Z,18.03
2023-02-11T04:25:51.316Z,18.97
2023-02-11T04:28:53.387Z,19.87
2023-02-11T04:31:55.909Z,18.23
2023-02-11T04:34:57.961Z,20.13
2023-02-11T04:37:59.846Z,18.63
2023-02-11T04:41:01.826Z,18.20
2023-02-11T04:44:04.233Z,17.43
2023-02-11T04:47:06.982Z,17.83
2023-02-11T04:50:09.471Z,19.27
2023-02-11T04:53:11.387Z,19.23
2023-02-11T04:56:13.336Z,20.87
2023-02-11T04:59:15.662Z,19.30
2023-02-11T05:02:17.709Z,18.50
2023-02-11T05:05:19.761Z,19.70
2023-02-11T05:08:21.818Z,20.43
2023-02-11T05:11:25.811Z,19.03
2023-02-11T05:14:27.800Z,19.00
2023-02-11T05:17:29.768Z,18.83
2023-02-11T05:20:31.787Z,16.50
2023-02-11T05:23:34.379Z,18.77
2023-02-11T05:26:36.491Z,17.60
2023-02-11T05:29:38.728Z,17.37
2023-02-11T05:32:40.826Z,17.10
2023-02-11T05:35:42.830Z,18.77
2023-02-11T05:38:44.753Z,16.17
2023-02-11T05:41:46.716Z,17.27
2023-02-11T05:44:50.630Z,15.37
2023-02-11T05:47:52.752Z,15.40
2023-02-11T05:50:54.752Z,16.50
2023-02-11T05:53:56.658Z,18.57
2023-02-11T05:56:58.647Z,16.73
2023-02-11T06:00:00.664Z,17.83
2023-02-11T06:03:04.569Z,16.17
2023-02-11T06:06:10.636Z,14.40
2023-02-11T06:09:12.642Z,17.30
2023-02-11T06:12:14.558Z,16.37
2023-02-11T06:15:16.612Z,17.37
2023-02-11T06:18:18.529Z,17.27
2023-02-11T06:21:20.495Z,17.10
2023-02-11T06:24:47.647Z,16.07
2023-02-11T06:27:44.623Z,16.13
2023-02-11T06:30:46.652Z,14.90
2023-02-11T06:33:50.318Z,16.27
2023-02-11T06:36:52.286Z,15.40
2023-02-11T06:39:54.273Z,15.33
2023-02-11T06:42:56.282Z,16.30
2023-02-11T06:45:58.298Z,15.37
2023-02-11T06:49:00.157Z,14.67
2023-02-11T06:52:02.184Z,14.80
2023-02-11T06:55:04.364Z,15.10
2023-02-11T06:58:06.667Z,14.03
2023-02-11T07:01:11.417Z,15.20
2023-02-11T07:04:14.917Z,13.90
2023-02-11T07:07:16.870Z,14.70
2023-02-11T07:10:18.949Z,15.20
2023-02-11T07:13:20.868Z,14.30
2023-02-11T07:16:23.457Z,13.67
2023-02-11T07:19:25.473Z,13.63
2023-02-11T07:22:27.599Z,14.07
2023-02-11T07:25:29.657Z,14.40
2023-02-11T07:28:31.947Z,14.77
2023-02-11T07:31:34.251Z,12.80
2023-02-11T07:34:36.291Z,14.37
2023-02-11T07:37:38.337Z,13.63
2023-02-11T07:40:40.478Z,13.80
2023-02-11T07:43:42.930Z,12.83
2023-02-11T07:46:45.780Z,13.60
2023-02-11T07:49:47.860Z,12.80
2023-02-11T07:52:49.836Z,12.40
2023-02-11T07:55:52.099Z,13.20
2023-02-11T07:58:55.370Z,12.90
2023-02-11T08:01:57.521Z,13.73
2023-02-11T08:04:59.512Z,12.03
2023-02-11T08:08:01.480Z,12.37
2023-02-11T08:11:08.668Z,11.40
2023-02-11T08:14:11.917Z,12.33
2023-02-11T08:17:13.842Z,10.67
2023-02-11T08:20:15.943Z,12.97
2023-02-11T08:23:17.901Z,13.20
2023-02-11T08:26:25.880Z,13.13
2023-02-11T08:29:27.893Z,13.10
2023-02-11T08:32:29.904Z,15.60
2023-02-11T08:35:36.598Z,14.30
2023-02-11T08:38:38.755Z,14.93
2023-02-11T08:41:40.841Z,14.60
2023-02-11T08:44:43.432Z,16.07
2023-02-11T08:47:45.408Z,14.30
2023-02-11T08:50:47.518Z,13.90
2023-02-11T08:53:50.872Z,13.90
2023-02-11T08:56:52.798Z,11.97
2023-02-11T08:59:54.843Z,14.43
2023-02-11T09:02:56.790Z,14.80
2023-02-11T09:05:58.764Z,14.27
2023-02-11T09:09:00.696Z,14.60
2023-02-11T09:12:02.660Z,12.73
2023-02-11T09:15:04.942Z,14.80
2023-02-11T09:18:07.579Z,13.97
2023-02-11T09:21:10.447Z,15.27
2023-02-11T09:24:12.519Z,13.63
2023-02-11T09:27:14.560Z,15.20
2023-02-11T09:30:16.517Z,14.83
2023-02-11T09:33:18.610Z,15.30
2023-02-11T09:36:31.873Z,14.97
2023-02-11T09:39:33.854Z,15.43
2023-02-11T09:42:53.967Z,16.33
2023-02-11T09:45:56.683Z,14.77
2023-02-11T09:49:00.279Z,14.63
2023-02-11T09:52:07.716Z,14.67
2023-02-11T09:55:27.548Z,13.30
2023-02-11T09:58:39.159Z,13.80
2023-02-11T10:02:04.891Z,13.87
2023-02-11T10:05:13.920Z,14.00
2023-02-11T10:09:12.871Z,12.67
2023-02-11T10:12:39.201Z,12.77
2023-02-11T10:16:15.069Z,13.20
2023-02-11T10:20:01.259Z,11.53
2023-02-11T10:23:13.593Z,11.20
2023-02-11T10:26:18.669Z,11.20
2023-02-11T10:29:42.294Z,11.43
2023-02-11T10:32:52.868Z,11.17
2023-02-11T10:35:54.911Z,9.97
2023-02-11T10:39:10.755Z,10.27
2023-02-11T10:42:14.597Z,11.30
2023-02-11T10:45:27.835Z,12.13
2023-02-11T10:48:53.019Z,11.20
2023-02-11T10:52:14.326Z,11.43
2023-02-11T10:55:21.306Z,10.80
2023-02-11T10:58:45.850Z,10.93
2023-02-11T11:02:00.775Z,9.83
2023-02-11T11:05:16.420Z,10.17
2023-02-11T11:08:19.925Z,10.03
2023-02-11T11:11:26.413Z,9.97
2023-02-11T11:14:29.761Z,10.67
2023-02-11T11:17:31.837Z,9.97
2023-02-11T11:20:36.324Z,9.33
2023-02-11T11:23:40.122Z,9.47
2023-02-11T11:26:45.352Z,9.90
2023-02-11T11:29:50.265Z,9.20
2023-02-11T11:32:52.705Z,10.00
2023-02-11T11:36:21.263Z,8.53
2023-02-11T11:39:27.994Z,10.57
2023-02-11T11:42:34.948Z,8.93
2023-02-11T11:45:37.063Z,9.77
2023-02-11T11:48:42.699Z,9.07
2023-02-11T11:51:55.224Z,8.97
2023-02-11T11:55:22.601Z,9.70
2023-02-11T11:58:24.826Z,8.40
2023-02-11T12:01:45.739Z,9.37
2023-02-11T12:04:54.057Z,9.83
2023-02-11T12:08:29.335Z,8.50
2023-02-11T12:11:38.390Z,9.00
2023-02-11T12:14:43.010Z,8.17
2023-02-11T12:18:13.085Z,8.03
2023-02-11T12:21:43.085Z,7.50
2023-02-11T12:24:45.191Z,5.93
2023-02-11T12:28:02.310Z,5.40
2023-02-11T12:31:19.514Z,6.37
2023-02-11T12:34:24.893Z,6.37
2023-02-11T12:37:26.975Z,6.10
2023-02-11T12:40:59.455Z,6.50
2023-02-11T12:44:01.886Z,6.73
2023-02-11T12:47:29.106Z,6.73
2023-02-11T12:50:34.274Z,6.67
2023-02-11T12:54:10.436Z,7.17
2023-02-11T12:57:37.447Z,8.73
2023-02-11T13:00:47.864Z,8.20
2023-02-11T13:04:20.262Z,9.40
2023-02-11T13:07:37.282Z,8.37
2023-02-11T13:10:43.729Z,9.07
2023-02-11T13:13:46.335Z,8.40
2023-02-11T13:16:51.190Z,7.57
2023-02-11T13:20:03.936Z,9.27
2023-02-11T13:23:32.180Z,8.83
2023-02-11T13:26:58.289Z,7.60
2023-02-11T13:30:22.770Z,9.07
2023-02-11T13:33:36.307Z,8.67
2023-02-11T13:36:39.875Z,9.53
2023-02-11T13:39:42.040Z,9.13
2023-02-11T13:42:53.330Z,9.07
2023-02-11T13:46:01.400Z,9.83
2023-02-11T13:49:03.643Z,10.63
2023-02-11T13:52:18.921Z,10.67
2023-02-11T13:55:24.507Z,9.17
2023-02-11T13:58:30.062Z,11.00
2023-02-11T14:02:12.693Z,10.27
2023-02-11T14:05:50.398Z,10.30
2023-02-11T14:09:11.980Z,10.43
2023-02-11T14:12:24.397Z,11.13
2023-02-11T14:15:38.351Z,12.33
2023-02-11T14:18:52.853Z,11.73
2023-02-11T14:22:12.146Z,12.30
2023-02-11T14:25:23.243Z,10.47
2023-02-11T14:28:34.595Z,10.23
2023-02-11T14:31:55.522Z,12.93
2023-02-11T14:35:37.829Z,11.57
2023-02-11T14:38:52.414Z,11.37
2023-02-11T14:41:55.573Z,11.17
2023-02-11T14:45:04.835Z,12.53
2023-02-11T14:48:17.957Z,11.97
2023-02-11T14:51:29.136Z,12.57
2023-02-11T14:54:32.578Z,12.07
2023-02-11T14:57:35.776Z,13.20
2023-02-11T15:01:14.104Z,11.73
2023-02-11T15:04:40.766Z,12.63
2023-02-11T15:07:52.438Z,11.13
2023-02-11T15:10:55.996Z,11.50
2023-02-11T15:14:07.234Z,10.47
2023-02-11T15:17:10.096Z,10.70
2023-02-11T15:20:26.288Z,10.70
2023-02-11T15:23:31.026Z,10.43
2023-02-11T15:26:34.068Z,9.87
2023-02-11T15:29:40.069Z,9.73
2023-02-11T15:32:45.405Z,9.47
2023-02-11T15:35:47.845Z,9.70
2023-02-11T15:39:29.449Z,8.70
2023-02-11T15:42:43.887Z,8.40
2023-02-11T15:46:02.494Z,7.60
2023-02-11T15:49:06.756Z,7.20
2023-02-11T15:52:09.937Z,9.07
2023-02-11T15:55:14.954Z,6.67
2023-02-11T15:58:18.699Z,7.13
2023-02-11T16:01:34.280Z,7.03
2023-02-11T16:04:38.322Z,7.57
2023-02-11T16:07:48.080Z,8.63
2023-02-11T16:11:02.692Z,7.20
2023-02-11T16:14:22.367Z,6.87
2023-02-11T16:17:31.064Z,7.37
2023-02-11T16:20:34.955Z,7.33
2023-02-11T16:23:45.428Z,6.97
2023-02-11T16:26:53.274Z,5.90
2023-02-11T16:29:57.168Z,6.13
2023-02-11T16:32:59.942Z,6.90
2023-02-11T16:36:20.039Z,7.83
2023-02-11T16:39:23.370Z,7.67
2023-02-11T16:42:26.067Z,7.97
2023-02-11T16:45:29.040Z,7.20
2023-02-11T16:48:33.536Z,6.47
2023-02-11T16:51:41.446Z,7.27
2023-02-11T16:54:44.710Z,8.10
2023-02-11T16:57:47.680Z,7.67
2023-02-11T17:00:52.052Z,7.97
2023-02-11T17:03:56.628Z,7.67
2023-02-11T17:06:59.909Z,7.60
2023-02-11T17:10:03.018Z,7.73
2023-02-11T17:13:06.035Z,8.50
2023-02-11T17:16:21.045Z,7.60
2023-02-11T17:19:24.805Z,8.13
2023-02-11T17:22:27.811Z,9.03
2023-02-11T17:25:30.900Z,8.93
2023-02-11T17:28:34.873Z,8.77
2023-02-11T17:31:38.087Z,7.83
2023-02-11T17:34:41.411Z,8.90
2023-02-11T17:37:43.971Z,10.10
2023-02-11T17:40:46.933Z,9.00
2023-02-11T17:43:49.940Z,9.07
2023-02-11T17:46:54.151Z,9.87
2023-02-11T17:49:57.607Z,9.83
2023-02-11T17:53:01.246Z,9.83
2023-02-11T17:56:06.686Z,9.83
2023-02-11T17:59:11.803Z,9.27
2023-02-11T18:02:15.012Z,10.70
2023-02-11T18:05:17.922Z,10.23
2023-02-11T18:08:22.266Z,9.17
2023-02-11T18:11:45.230Z,9.93
2023-02-11T18:14:47.983Z,9.80
2023-02-11T18:17:50.990Z,9.93
2023-02-11T18:21:02.128Z,10.03
2023-02-11T18:24:07.048Z,9.60
2023-02-11T18:27:10.172Z,9.47
2023-02-11T18:30:18.363Z,10.37
2023-02-11T18:33:21.358Z,8.80
2023-02-11T18:36:24.115Z,10.40
2023-02-11T18:39:26.819Z,10.27
2023-02-11T18:42:30.001Z,9.13
2023-02-11T18:45:33.179Z,10.57
2023-02-11T18:48:39.776Z,10.10
2023-02-11T18:51:42.473Z,10.77
2023-02-11T18:54:47.269Z,10.70
2023-02-11T18:57:50.306Z,12.10
2023-02-11T19:00:53.302Z,10.70
2023-02-11T19:04:00.038Z,12.30
2023-02-11T19:07:05.171Z,10.60
2023-02-11T19:10:09.515Z,10.63
2023-02-11T19:13:14.293Z,10.60
2023-02-11T19:16:20.594Z,11.70
2023-02-11T19:19:26.022Z,13.17
2023-02-11T19:22:29.375Z,11.03
2023-02-11T19:25:32.830Z,11.70
2023-02-11T19:28:38.109Z,10.77
2023-02-11T19:31:41.734Z,11.60
2023-02-11T19:34:45.120Z,11.03
2023-02-11T19:37:48.515Z,11.73
2023-02-11T19:40:57.264Z,11.90
2023-02-11T19:44:02.238Z,10.50
2023-02-11T19:47:05.596Z,11.40
2023-02-11T19:50:10.948Z,11.63
2023-02-11T19:53:14.096Z,11.00
2023-02-11T19:56:19.766Z,12.40
2023-02-11T19:59:23.936Z,12.17
2023-02-11T20:02:26.868Z,11.17
2023-02-11T20:05:29.801Z,12.17
2023-02-11T20:08:35.345Z,11.33
2023-02-11T20:11:40.138Z,11.37
2023-02-11T20:14:43.306Z,11.63
2023-02-11T20:17:47.626Z,11.53
2023-02-11T20:20:50.642Z,11.80
2023-02-11T20:23:54.580Z,11.07
2023-02-11T20:26:57.893Z,12.00
2023-02-11T20:30:01.123Z,12.50
2023-02-11T20:33:05.643Z,12.17
2023-02-11T20:36:15.536Z,12.73
2023-02-11T20:39:19.353Z,11.50
2023-02-11T20:42:23.418Z,12.57
2023-02-11T20:45:27.486Z,12.43
2023-02-11T20:48:31.041Z,12.87
2023-02-11T20:51:34.925Z,12.80
2023-02-11T20:54:39.197Z,12.33
2023-02-11T20:57:41.892Z,12.40
2023-02-11T21:00:46.387Z,12.00
2023-02-11T21:04:05.798Z,12.63
2023-02-11T21:07:08.747Z,11.73
2023-02-11T21:10:11.713Z,12.33
2023-02-11T21:13:14.509Z,13.07
2023-02-11T21:16:25.215Z,12.83
2023-02-11T21:19:28.561Z,12.57
2023-02-11T21:22:31.974Z,11.63
2023-02-11T21:25:35.292Z,11.90
2023-02-11T21:28:40.890Z,12.73
2023-02-11T21:31:44.348Z,12.27
2023-02-11T21:34:48.252Z,12.40
2023-02-11T21:37:51.094Z,12.20
2023-02-11T21:40:55.327Z,12.60
2023-02-11T21:43:58.190Z,13.23
2023-02-11T21:47:01.094Z,12.10
2023-02-11T21:50:03.942Z,10.73
2023-02-11T21:53:07.127Z,12.57
2023-02-11T21:56:13.166Z,12.33
2023-02-11T21:59:16.975Z,12.67
2023-02-11T22:02:19.434Z,13.17
2023-02-11T22:05:22.188Z,14.10
2023-02-11T22:08:24.267Z,13.23
2023-02-11T22:11:26.443Z,14.20
2023-02-11T22:14:31.261Z,12.67
2023-02-11T22:17:34.785Z,13.80
2023-02-11T22:20:36.923Z,11.37
2023-02-11T22:23:40.099Z,13.93
2023-02-11T22:26:42.165Z,13.70
2023-02-11T22:29:44.782Z,14.10
2023-02-11T22:32:47.615Z,12.10
2023-02-11T22:35:49.771Z,13.30
2023-02-11T22:38:52.453Z,13.07
2023-02-11T22:41:56.578Z,14.07
2023-02-11T22:44:58.567Z,14.43
2023-02-11T22:48:00.690Z,13.47
2023-02-11T22:51:19.584Z,13.23
2023-02-11T22:54:21.713Z,13.20
2023-02-11T22:57:23.765Z,13.03
2023-02-11T23:00:26.661Z,13.10
2023-02-11T23:03:29.292Z,13.30
2023-02-11T23:06:31.668Z,12.00
2023-02-11T23:09:33.647Z,13.67
2023-02-11T23:12:35.592Z,14.90
2023-02-11T23:15:42.340Z,13.80
2023-02-11T23:18:46.516Z,14.93
2023-02-11T23:21:51.124Z,13.80
2023-02-11T23:24:53.301Z,13.03
2023-02-11T23:27:55.215Z,12.63
2023-02-11T23:30:57.281Z,11.33
2023-02-11T23:33:59.642Z,12.30
2023-02-11T23:37:01.552Z,13.53
2023-02-11T23:40:04.430Z,12.40
2023-02-11T23:43:06.380Z,12.77
2023-02-11T23:46:09.331Z,11.53
2023-02-11T23:49:11.413Z,11.00
2023-02-11T23:52:13.376Z,11.23
2023-02-11T23:55:15.397Z,9.80
2023-02-11T23:58:17.429Z,12.43
